Airfield :
LOGIN :

Register | Disclaimer

   EN    FR    IT 

 










Legend :    VFR   Marginal VFR   IFR   Intensive IFR   Very Intensive IFR
Visi :
Ceiling :
>= 8 km
>= 3000ft
5 to 8 km
1000 to 3000 ft
1500m to 5 km
500 to 1000 ft
800 to 1500m
200 to 500 ft
< 800m
< 200 ft
Symbols :   Thunderstorms  Fog  Heavy snow  Heavy precipitations  Wind > 20 kt
SIGMETs :     Misc.  Thunderstorms  Icing  Turbulence  Mountain Waves  Volcanic Ashes






- Airport Elevation : 96 ft
- IATA code : REG


LICR - Reggio Calabria

CURRENT METAR :
  • 182250Z AUTO 36013KT 9999 // NCD 28/24 Q1015

EXPIRED METARs :
  • 182220Z AUTO 01012KT 9999 // FEW120/// 28/24 Q1015
  • 182150Z 36014KT CAVOK 29/24 Q1015
  • 182120Z 36016KT CAVOK 29/23 Q1015
  • 182050Z 36012KT CAVOK 29/23 Q1016
  • 182020Z 36012KT CAVOK 29/23 Q1016
  • 181950Z 36012KT CAVOK 29/22 Q1016
  • 181920Z 36012KT CAVOK 29/22 Q1015
  • 181850Z 36014KT CAVOK 29/22 Q1015
  • 181820Z 01014KT CAVOK 30/21 Q1015

TAF TAF LICR
Valid from the 18 at 18:00 until the 19 at 18:00 UTC


181700Z 1818/1918 36016KT CAVOK



MET'MAP, your aeronautical weather chart ! - Copyright ORBIFLY December 2007 - Disclaimer

ORBIFLY MET'MAP TEAM :

Programming & Development : Alexandra Zaïnal
Original concept : Baudouin d'Aumeries
Technical & hardware support : Manuel Goepfert
Assistance : Marc-Olivier Méhu




SOURCES & CREDITS :

   NOAA